West Newton, Pennsylvania
Current Conditions -  °F | °C
As of 2:53 PM on Friday 31 Oct 2014 (Local Time) from KAGC Reporting Station
Light Rain Light Rain  
Wind Chill: 44°   Ceiling: 3500
Heat Index: 44°   Visibility: 6mi
Dew Point: 37°   Wind: 3mph
Humidity: 76%   Direction: 310°NW
Pressure: 29.86"   Gusts: NA
Location:  40.21°N, 79.77°W
Report Text: KAGC 311853Z 31003KT 6SM -RA SCT029 OVC035 07/03 A2986 RMK AO2 SLP121 P0003 T00670028
Loading
Personal Weather Stations






























Interactive Weather Map
Tropical Storm Tracking
New forecast layout! Learn more

10-Day Weather Forecast

Advertisements
Track Severe Weather on mobile